Flight Number: EUR3036 Duration: 11:00
Departure: Helsinki Vantaa (EFHK) at 08:00 Distance: 4494 Nm
Arrival: Miami Int'l (KMIA) at 19:00 Equipment: A340

Weather Information
Helsinki-Vantaa, Finland (EFHK) 60-19N 024-58E 56M Jan 21, 2019 - 07:50 AM EST / 2019.01.21 1250 UTC
Wind: from the NW (320 degrees) at 6 MPH (5 KT):0
Visibility: greater than 7 mile(s):0 Temperature: 5 F (-15 C)
Windchill: -5 F (-21 C):2 Dew Point: 1 F (-17 C) Relative Humidity: 84% Pressure (altimeter): 30.00 in. Hg (1016 hPa)
ob: EFHK 211250Z 32005KT CAVOK M15/M17 Q1016 NOSIG cycle: 13
Sunrise: 07:05 Sunset: 13:57 (UTC)

MIAMI INTERNATIONAL AIRPORT , FL, United States (KMIA) 25-47N 080-19W 8M Jan 21, 2019 - 07:53 AM EST / 2019.01.21 1253 UTC
Wind: from the NNW (340 degrees) at 6 MPH (5 KT):0
Visibility: 10 mile(s):0
Sky conditions: mostly clear Temperature: 46.9 F (8.3 C) Dew Point: 39.0 F (3.9 C) Relative Humidity: 73% Pressure (altimeter): 30.23 in. Hg (1023 hPa)
ob: KMIA 211253Z 34005KT 10SM FEW015 08/04 A3023 RMK AO2 SLP237 T00830039 cycle: 13
Sunrise: 12:11 Sunset: 22:53 (UTC)

TAF:2019/01/21 12:22 TAF KMIA 211120Z 2112/2218 34012KT P6SM SCT020 FM211500 02010KT P6SM SCT040 FM220000 05009KT P6SM SCT050

This route has never been flown.

Route map